createdAt,value
2017-06-13T00:00:40.882Z,86.99
2017-06-13T00:01:49.918Z,86.94
2017-06-13T00:02:59.129Z,86.7
2017-06-13T00:04:08.017Z,86.99
2017-06-13T00:05:16.910Z,87.13
2017-06-13T00:06:25.803Z,87.27
2017-06-13T00:07:35.118Z,87.18
2017-06-13T00:08:44.008Z,87.37
2017-06-13T00:09:52.891Z,87.37
2017-06-13T00:11:02.102Z,87.37
2017-06-13T00:12:10.986Z,87.76
2017-06-13T00:13:19.871Z,87.76
2017-06-13T00:14:29.408Z,87.56
2017-06-13T00:15:38.625Z,88.33
2017-06-13T00:16:47.838Z,88.33
2017-06-13T00:17:57.050Z,88.04
2017-06-13T00:19:06.411Z,88.71
2017-06-13T00:20:15.299Z,88.23
2017-06-13T00:21:24.509Z,89
2017-06-13T00:22:33.399Z,88.33
2017-06-13T00:23:42.291Z,88.9
2017-06-13T00:24:51.280Z,88.52
2017-06-13T00:26:00.170Z,88.9
2017-06-13T00:27:09.060Z,88.62
2017-06-13T00:28:18.273Z,89.09
2017-06-13T00:29:27.503Z,88.23
2017-06-13T00:30:36.392Z,89.09
2017-06-13T00:31:45.281Z,89
2017-06-13T00:32:54.170Z,89.09
2017-06-13T00:34:03.057Z,89.67
2017-06-13T00:35:11.945Z,89.38
2017-06-13T00:36:20.987Z,89.58
2017-06-13T00:37:29.875Z,89.48
2017-06-13T00:38:39.091Z,89.58
2017-06-13T00:39:47.981Z,89.48
2017-06-13T00:40:57.193Z,89.58
2017-06-13T00:42:06.075Z,89.67
2017-06-13T00:43:15.315Z,89.67
2017-06-13T00:44:24.200Z,89.76
2017-06-13T00:45:33.413Z,90.15
2017-06-13T00:46:42.300Z,90.24
2017-06-13T00:47:51.188Z,90.15
2017-06-13T00:49:00.074Z,90.44
2017-06-13T00:50:09.290Z,90.15
2017-06-13T00:51:18.175Z,90.82
2017-06-13T00:52:27.057Z,90.63
2017-06-13T00:53:36.094Z,90.91
2017-06-13T00:54:45.635Z,90.82
2017-06-13T00:55:54.849Z,90.63
2017-06-13T00:57:03.740Z,90.53
2017-06-13T00:58:12.954Z,90.82
2017-06-13T00:59:22.144Z,91.11
2017-06-13T01:00:31.030Z,91.01
2017-06-13T01:01:40.244Z,91.11
2017-06-13T01:02:49.134Z,90.91
2017-06-13T01:03:58.025Z,91.68
2017-06-13T01:05:07.214Z,91.39
2017-06-13T01:06:16.423Z,91.3
2017-06-13T01:07:25.307Z,91.68
2017-06-13T01:08:34.191Z,91.49
2017-06-13T01:09:43.080Z,91.39
2017-06-13T01:10:52.293Z,91.97
2017-06-13T01:12:01.181Z,91.49
2017-06-13T01:13:10.393Z,91.49
2017-06-13T01:14:19.600Z,91.58
2017-06-13T01:15:28.491Z,91.68
2017-06-13T01:16:37.479Z,91.68
2017-06-13T01:17:46.370Z,91.11
2017-06-13T01:18:55.257Z,91.68
2017-06-13T01:20:04.474Z,91.68
2017-06-13T01:21:14.014Z,91.49
2017-06-13T01:22:23.756Z,91.68
2017-06-13T01:23:32.967Z,91.39
2017-06-13T01:24:42.182Z,91.77
2017-06-13T01:25:51.071Z,91.3
2017-06-13T01:26:59.958Z,91.68
2017-06-13T01:28:08.993Z,91.68
2017-06-13T01:29:18.236Z,91.58
2017-06-13T01:30:27.129Z,91.83
2017-06-13T01:31:36.021Z,91.87
2017-06-13T01:32:44.912Z,91.68
2017-06-13T01:33:54.426Z,91.77
2017-06-13T01:35:03.310Z,91.44
2017-06-13T01:36:12.198Z,91.87
2017-06-13T01:37:21.409Z,92.4
2017-06-13T01:38:30.621Z,91.97
2017-06-13T01:39:39.659Z,92.11
2017-06-13T01:40:48.549Z,92.06
2017-06-13T01:41:57.437Z,92.25
2017-06-13T01:43:06.974Z,92.25
2017-06-13T01:44:15.866Z,92.06
2017-06-13T01:45:24.901Z,92.16
2017-06-13T01:46:34.112Z,92.16
2017-06-13T01:47:43.001Z,91.68
2017-06-13T01:48:52.217Z,92.16
2017-06-13T01:50:01.432Z,91.77
2017-06-13T01:51:10.419Z,92.06
2017-06-13T01:52:19.308Z,92.4
2017-06-13T01:53:28.198Z,92.35
2017-06-13T01:54:37.415Z,92.21
2017-06-13T01:55:46.624Z,92.69
2017-06-13T01:56:55.888Z,92.54
2017-06-13T01:58:05.100Z,92.54
2017-06-13T01:59:13.992Z,92.73
2017-06-13T02:00:22.882Z,92.59
2017-06-13T02:01:32.101Z,92.54
2017-06-13T02:02:41.612Z,92.59
2017-06-13T02:03:51.148Z,92.73
2017-06-13T02:05:00.360Z,93.12
2017-06-13T02:06:09.573Z,92.49
2017-06-13T02:07:18.785Z,92.25
2017-06-13T02:08:27.770Z,92.16
2017-06-13T02:09:36.986Z,92.11
2017-06-13T02:10:45.877Z,92.16
2017-06-13T02:11:55.091Z,92.25
2017-06-13T02:13:04.626Z,92.73
2017-06-13T02:14:13.661Z,92.54
2017-06-13T02:15:22.548Z,92.44
2017-06-13T02:16:31.761Z,92.35
2017-06-13T02:17:40.650Z,92.02
2017-06-13T02:18:49.544Z,92.06
2017-06-13T02:19:58.584Z,92.3
2017-06-13T02:21:07.796Z,92.25
2017-06-13T02:22:16.683Z,92.3
2017-06-13T02:23:25.569Z,91.83
2017-06-13T02:24:34.789Z,92.49
2017-06-13T02:25:44.061Z,92.49
2017-06-13T02:26:52.950Z,92.4
2017-06-13T02:28:01.837Z,92.59
2017-06-13T02:29:10.724Z,92.4
2017-06-13T02:30:19.613Z,92.54
2017-06-13T02:31:28.651Z,92.3
2017-06-13T02:32:37.536Z,92.59
2017-06-13T02:33:46.422Z,92.49
2017-06-13T02:34:55.308Z,92.69
2017-06-13T02:36:04.521Z,92.02
2017-06-13T02:37:13.662Z,92.21
2017-06-13T02:38:22.550Z,92.59
2017-06-13T02:39:31.434Z,92.3
2017-06-13T02:40:40.647Z,92.4
2017-06-13T02:41:49.855Z,92.59
2017-06-13T02:42:59.118Z,92.3
2017-06-13T02:44:08.007Z,92.02
2017-06-13T02:45:16.922Z,92.21
2017-06-13T02:46:25.825Z,92.3
2017-06-13T02:47:34.763Z,92.02
2017-06-13T02:48:44.027Z,92.3
2017-06-13T02:49:53.238Z,92.49
2017-06-13T02:51:02.452Z,91.83
2017-06-13T02:52:11.666Z,92.88
2017-06-13T02:53:21.202Z,92.59
2017-06-13T02:54:30.514Z,92.49
2017-06-13T02:55:39.728Z,93.26
2017-06-13T02:56:48.616Z,92.97
2017-06-13T02:57:57.506Z,93.26
2017-06-13T02:59:06.396Z,93.16
2017-06-13T03:00:15.284Z,92.97
2017-06-13T03:01:24.173Z,92.97
2017-06-13T03:02:33.062Z,93.16
2017-06-13T03:03:41.950Z,92.88
2017-06-13T03:04:50.839Z,93.4
2017-06-13T03:06:00.203Z,93.5
2017-06-13T03:07:09.093Z,93.31
2017-06-13T03:08:18.307Z,93.21
2017-06-13T03:09:27.536Z,93.31
2017-06-13T03:10:36.421Z,93.79
2017-06-13T03:11:45.456Z,94.46
2017-06-13T03:12:54.993Z,93.69
2017-06-13T03:14:04.205Z,94.46
2017-06-13T03:15:13.095Z,94.07
2017-06-13T03:16:21.982Z,94.36
2017-06-13T03:17:31.023Z,94.84
2017-06-13T03:18:40.239Z,95.03
2017-06-13T03:19:49.446Z,94.93
2017-06-13T03:20:58.664Z,95.51
2017-06-13T03:22:07.553Z,95.51
2017-06-13T03:23:16.589Z,95.22
2017-06-13T03:24:25.484Z,95.03
2017-06-13T03:25:35.022Z,95.03
2017-06-13T03:26:44.235Z,95.03
2017-06-13T03:27:53.444Z,95.41
2017-06-13T03:29:02.428Z,95.32
2017-06-13T03:30:11.316Z,95.12
2017-06-13T03:31:20.204Z,95.61
2017-06-13T03:32:29.441Z,95.51
2017-06-13T03:33:38.652Z,96.18
2017-06-13T03:34:47.692Z,95.98
2017-06-13T03:35:57.224Z,95.98
2017-06-13T03:37:06.108Z,95.89
2017-06-13T03:38:15.316Z,96.56
2017-06-13T03:39:24.206Z,96.27
2017-06-13T03:40:33.423Z,96.18
2017-06-13T03:41:42.634Z,96.56
2017-06-13T03:42:52.173Z,96.56
2017-06-13T03:44:01.711Z,96.47
2017-06-13T03:45:10.926Z,96.99
2017-06-13T03:46:19.815Z,96.94
2017-06-13T03:47:29.031Z,96.7
2017-06-13T03:48:38.245Z,97.47
2017-06-13T03:49:47.132Z,97.37
2017-06-13T03:50:56.662Z,97.56
2017-06-13T03:52:05.545Z,97.66
2017-06-13T03:53:14.431Z,96.99
2017-06-13T03:54:23.316Z,97.66
2017-06-13T03:55:32.199Z,97.18
2017-06-13T03:56:41.083Z,97.18
2017-06-13T03:57:50.446Z,97.18
2017-06-13T03:58:59.336Z,97.52
2017-06-13T04:00:08.224Z,97.66
2017-06-13T04:01:17.757Z,97.47
2017-06-13T04:02:26.646Z,97.56
2017-06-13T04:03:35.634Z,97.04
2017-06-13T04:04:44.519Z,97.52
2017-06-13T04:05:53.403Z,97.18
2017-06-13T04:07:02.294Z,97.56
2017-06-13T04:08:11.838Z,97.56
2017-06-13T04:09:20.827Z,97.94
2017-06-13T04:10:29.719Z,97.94
2017-06-13T04:11:38.929Z,97.75
2017-06-13T04:12:47.821Z,98.42
2017-06-13T04:13:56.712Z,98.18
2017-06-13T04:15:06.227Z,98.75
2017-06-13T04:16:15.113Z,97.99
2017-06-13T04:17:24.007Z,97.99
2017-06-13T04:18:33.222Z,98.47
2017-06-13T04:19:42.436Z,97.99
2017-06-13T04:20:51.321Z,97.99
2017-06-13T04:22:00.206Z,98.47
2017-06-13T04:23:09.098Z,98.18
2017-06-13T04:24:17.978Z,97.99
2017-06-13T04:25:26.864Z,98.18
2017-06-13T04:26:35.852Z,98.18
2017-06-13T04:27:44.740Z,98.57
2017-06-13T04:28:53.625Z,98.28
2017-06-13T04:30:02.835Z,98.57
2017-06-13T04:31:12.048Z,97.99
2017-06-13T04:32:21.261Z,98.18
2017-06-13T04:33:30.147Z,97.99
2017-06-13T04:34:39.357Z,98.09
2017-06-13T04:35:48.572Z,98.28
2017-06-13T04:36:57.783Z,97.42
2017-06-13T04:38:06.997Z,97.52
2017-06-13T04:39:15.883Z,97.52
2017-06-13T04:40:24.773Z,97.61
2017-06-13T04:41:33.989Z,97.99
2017-06-13T04:42:42.876Z,98.18
2017-06-13T04:43:51.911Z,97.61
2017-06-13T04:45:00.798Z,97.42
2017-06-13T04:46:09.686Z,97.8
2017-06-13T04:47:18.573Z,97.71
2017-06-13T04:48:27.787Z,97.61
2017-06-13T04:49:36.823Z,97.23
2017-06-13T04:50:46.035Z,97.99
2017-06-13T04:51:55.895Z,97.61
2017-06-13T04:53:04.781Z,97.52
2017-06-13T04:54:14.353Z,97.08
2017-06-13T04:55:23.236Z,96.75
2017-06-13T04:56:32.121Z,96.51
2017-06-13T04:57:41.338Z,96.99
2017-06-13T04:58:50.227Z,96.89
2017-06-13T04:59:59.115Z,96.61
2017-06-13T05:01:08.156Z,96.8
2017-06-13T05:02:17.697Z,96.7
2017-06-13T05:03:26.586Z,96.22
2017-06-13T05:04:35.476Z,96.22
2017-06-13T05:05:44.690Z,96.13
2017-06-13T05:06:53.876Z,95.94
2017-06-13T05:08:02.765Z,95.36
2017-06-13T05:09:11.973Z,96.03
2017-06-13T05:10:20.865Z,95.36
2017-06-13T05:11:30.078Z,95.27
2017-06-13T05:12:39.064Z,95.46
2017-06-13T05:13:47.953Z,95.46
2017-06-13T05:14:57.168Z,95.17
2017-06-13T05:16:06.705Z,95.27
2017-06-13T05:17:15.594Z,94.55
2017-06-13T05:18:24.783Z,94.45
2017-06-13T05:19:34.320Z,93.3
2017-06-13T05:20:43.209Z,93.69
2017-06-13T05:21:52.749Z,93.84
2017-06-13T05:23:02.283Z,93.98
2017-06-13T05:24:11.324Z,93.45
2017-06-13T05:25:20.215Z,93.59
2017-06-13T05:26:29.101Z,92.83
2017-06-13T05:27:37.990Z,92.63
2017-06-13T05:28:46.880Z,92.63
2017-06-13T05:29:55.820Z,92.83
2017-06-13T05:31:05.031Z,92.25
2017-06-13T05:32:14.243Z,92.68
2017-06-13T05:33:23.452Z,91.53
2017-06-13T05:34:32.342Z,91.63
2017-06-13T05:35:41.279Z,90.48
2017-06-13T05:36:50.490Z,90.77
2017-06-13T05:38:00.028Z,91.05
2017-06-13T05:39:08.922Z,90.77
2017-06-13T05:40:18.133Z,90.39
2017-06-13T05:41:27.176Z,90.77
2017-06-13T05:42:36.063Z,89.62
2017-06-13T05:43:44.953Z,89.72
2017-06-13T05:44:54.171Z,90.39
2017-06-13T05:46:03.063Z,90.29
2017-06-13T05:47:12.104Z,90.77
2017-06-13T05:48:20.995Z,90.67
2017-06-13T05:49:29.884Z,90.48
2017-06-13T05:50:39.096Z,89.81
2017-06-13T05:51:47.984Z,90.09
2017-06-13T05:52:57.023Z,89.62
2017-06-13T05:54:06.246Z,89.52
2017-06-13T05:55:15.783Z,90
2017-06-13T05:56:24.672Z,90.29
2017-06-13T05:57:33.894Z,89.81
2017-06-13T05:58:43.156Z,89.72
2017-06-13T05:59:52.045Z,89.9
2017-06-13T06:01:01.275Z,89.04
2017-06-13T06:02:10.813Z,88.66
2017-06-13T06:03:19.703Z,88.95
2017-06-13T06:04:28.917Z,88.66
2017-06-13T06:05:37.802Z,89.33
2017-06-13T06:06:47.012Z,89.52
2017-06-13T06:07:56.225Z,89.81
2017-06-13T06:09:05.763Z,89.9
2017-06-13T06:10:14.656Z,90.48
2017-06-13T06:11:23.882Z,89.47
2017-06-13T06:12:32.772Z,90.05
2017-06-13T06:13:41.914Z,89.95
2017-06-13T06:14:50.803Z,89.57
2017-06-13T06:15:59.692Z,89.86
2017-06-13T06:17:08.579Z,89.47
2017-06-13T06:18:17.466Z,89.86
2017-06-13T06:19:26.355Z,89.66
2017-06-13T06:20:35.719Z,89.18
2017-06-13T06:21:44.934Z,89.18
2017-06-13T06:22:53.828Z,88.8
2017-06-13T06:24:03.374Z,89.18
2017-06-13T06:25:12.266Z,88.9
2017-06-13T06:26:21.406Z,88.13
2017-06-13T06:27:30.296Z,88.23
2017-06-13T06:28:39.187Z,88.03
2017-06-13T06:29:48.091Z,88.61
2017-06-13T06:30:57.309Z,88.7
2017-06-13T06:32:06.301Z,88.61
2017-06-13T06:33:15.192Z,88.32
2017-06-13T06:34:24.412Z,88.03
2017-06-13T06:35:33.946Z,88.03
2017-06-13T06:36:42.836Z,88.32
2017-06-13T06:37:52.473Z,88.61
2017-06-13T06:39:01.398Z,88.32
2017-06-13T06:40:10.292Z,87.84
2017-06-13T06:41:19.182Z,88.13
2017-06-13T06:42:28.103Z,88.13
2017-06-13T06:43:37.192Z,88.23
2017-06-13T06:44:46.085Z,88.03
2017-06-13T06:45:54.977Z,88.8
2017-06-13T06:47:04.523Z,88.8
2017-06-13T06:48:13.741Z,88.23
2017-06-13T06:49:23.009Z,87.74
2017-06-13T06:50:31.897Z,86.79
2017-06-13T06:51:40.786Z,87.08
2017-06-13T06:52:49.675Z,86.6
2017-06-13T06:53:58.564Z,87.17
2017-06-13T06:55:07.456Z,87.55
2017-06-13T06:56:16.350Z,87.55
2017-06-13T06:57:25.243Z,87.94
2017-06-13T06:58:34.140Z,87.74
2017-06-13T06:59:43.033Z,87.17
2017-06-13T07:00:52.496Z,87.27
2017-06-13T07:02:01.388Z,86.02
2017-06-13T07:03:10.605Z,86.41
2017-06-13T07:04:19.498Z,86.79
2017-06-13T07:05:28.393Z,86.98
2017-06-13T07:06:38.235Z,86.88
2017-06-13T07:07:47.125Z,87.27
2017-06-13T07:08:56.018Z,86.79
2017-06-13T07:10:04.913Z,86.5
2017-06-13T07:11:14.453Z,86.31
2017-06-13T07:12:23.496Z,86.31
2017-06-13T07:13:32.748Z,86.98
2017-06-13T07:14:41.641Z,86.54
2017-06-13T07:15:50.535Z,85.78
2017-06-13T07:16:59.429Z,85.11
2017-06-13T07:18:08.372Z,85.58
2017-06-13T07:19:17.588Z,85.49
2017-06-13T07:20:26.799Z,86.02
2017-06-13T07:21:35.742Z,86.21
2017-06-13T07:22:44.628Z,86.88
2017-06-13T07:23:53.619Z,85.78
2017-06-13T07:25:02.506Z,86.83
2017-06-13T07:26:11.721Z,85.39
2017-06-13T07:27:20.611Z,85.21
2017-06-13T07:28:29.825Z,85.58
2017-06-13T07:29:38.826Z,85.88
2017-06-13T07:30:47.717Z,85.68
2017-06-13T07:31:56.607Z,85.58
2017-06-13T07:33:05.500Z,85.88
2017-06-13T07:34:14.394Z,86.25
2017-06-13T07:35:23.437Z,86.16
2017-06-13T07:36:32.329Z,85.11
2017-06-13T07:37:41.217Z,85.88
2017-06-13T07:38:50.105Z,85.11
2017-06-13T07:39:59.318Z,84.44
2017-06-13T07:41:08.308Z,83.04
2017-06-13T07:42:17.532Z,83.19
2017-06-13T07:43:26.425Z,82.62
2017-06-13T07:44:35.317Z,83.58
2017-06-13T07:45:44.207Z,83.19
2017-06-13T07:46:53.580Z,83.52
2017-06-13T07:48:02.796Z,83.23
2017-06-13T07:49:12.017Z,81.79
2017-06-13T07:50:20.913Z,80.74
2017-06-13T07:51:29.805Z,81.31
2017-06-13T07:52:38.841Z,80.74
2017-06-13T07:53:48.387Z,80.45
2017-06-13T07:54:57.280Z,79.01
2017-06-13T07:56:06.169Z,79.49
2017-06-13T07:57:15.385Z,79.97
2017-06-13T07:58:24.850Z,79.72
2017-06-13T07:59:34.388Z,79.3
2017-06-13T08:00:43.285Z,78.77
2017-06-13T08:01:52.177Z,79.44
2017-06-13T08:03:01.066Z,79.91
2017-06-13T08:04:09.958Z,79.91
2017-06-13T08:05:18.850Z,78.28
2017-06-13T08:06:27.742Z,78.47
2017-06-13T08:07:36.638Z,78.57
2017-06-13T08:08:45.850Z,78.28
2017-06-13T08:09:55.267Z,79.05
2017-06-13T08:11:04.809Z,78.77
2017-06-13T08:12:14.026Z,78.57
2017-06-13T08:13:22.918Z,78.67
2017-06-13T08:14:31.810Z,78.96
2017-06-13T08:15:40.702Z,78.77
2017-06-13T08:16:50.583Z,78.86
2017-06-13T08:17:59.475Z,76.84
2017-06-13T08:19:08.696Z,75.79
2017-06-13T08:20:17.918Z,76.94
2017-06-13T08:21:27.210Z,76.37
2017-06-13T08:22:36.100Z,76.94
2017-06-13T08:23:44.992Z,77.33
2017-06-13T08:24:53.884Z,77.23
2017-06-13T08:26:02.775Z,76.94
2017-06-13T08:27:11.816Z,76.94
2017-06-13T08:28:20.710Z,77.13
2017-06-13T08:29:29.610Z,77.04
2017-06-13T08:30:38.823Z,77.51
2017-06-13T08:31:47.712Z,77.23
2017-06-13T08:32:57.079Z,77.33
2017-06-13T08:34:05.978Z,76.56
2017-06-13T08:35:15.192Z,76.75
2017-06-13T08:36:24.406Z,76.65
2017-06-13T08:37:33.622Z,77.23
2017-06-13T08:38:42.620Z,75.7
2017-06-13T08:39:51.511Z,76.07
2017-06-13T08:41:00.402Z,76.37
2017-06-13T08:42:09.294Z,75.98
2017-06-13T08:43:18.187Z,77.04
2017-06-13T08:44:27.284Z,76.84
2017-06-13T08:45:36.497Z,76.56
2017-06-13T08:46:45.389Z,77.13
2017-06-13T08:47:54.287Z,77.33
2017-06-13T08:49:03.178Z,77.56
2017-06-13T08:50:12.221Z,76.88
2017-06-13T08:51:21.116Z,77.17
2017-06-13T08:52:30.010Z,75.73
2017-06-13T08:53:39.222Z,74.87
2017-06-13T08:54:48.113Z,74.58
2017-06-13T08:55:57.253Z,73.62
2017-06-13T08:57:06.476Z,74.39
2017-06-13T08:58:15.701Z,74.39
2017-06-13T08:59:24.592Z,74.19
2017-06-13T09:00:33.810Z,73.75
2017-06-13T09:01:42.855Z,73.75
2017-06-13T09:02:51.746Z,74.43
2017-06-13T09:04:00.636Z,73.08
2017-06-13T09:05:09.532Z,73.85
2017-06-13T09:06:18.424Z,73.75
2017-06-13T09:07:27.463Z,74.33
2017-06-13T09:08:36.357Z,74.71
2017-06-13T09:09:45.903Z,74.1
2017-06-13T09:10:55.136Z,74.77
2017-06-13T09:12:04.028Z,75.02
2017-06-13T09:13:13.120Z,75.92
2017-06-13T09:14:22.011Z,75.54
2017-06-13T09:15:30.905Z,76.17
2017-06-13T09:16:39.799Z,76.17
2017-06-13T09:17:49.340Z,76.84
2017-06-13T09:18:58.329Z,77.71
2017-06-13T09:20:07.217Z,76.27
2017-06-13T09:21:16.439Z,76.46
2017-06-13T09:22:25.334Z,77.04
2017-06-13T09:23:34.225Z,77.33
2017-06-13T09:24:43.215Z,76.37
2017-06-13T09:25:52.436Z,76.07
2017-06-13T09:27:01.654Z,76.84
2017-06-13T09:28:10.546Z,76.65
2017-06-13T09:29:19.444Z,76.37
2017-06-13T09:30:28.912Z,76.56
2017-06-13T09:31:38.125Z,75.98
2017-06-13T09:32:47.668Z,76.4
2017-06-13T09:33:56.565Z,75.92
2017-06-13T09:35:05.779Z,76.4
2017-06-13T09:36:14.920Z,76.4
2017-06-13T09:37:23.811Z,76.21
2017-06-13T09:38:32.701Z,77.08
2017-06-13T09:39:41.917Z,76.59
2017-06-13T09:40:50.813Z,75.54
2017-06-13T09:41:59.707Z,75.92
2017-06-13T09:43:09.249Z,75.35
2017-06-13T09:44:18.141Z,75.82
2017-06-13T09:45:27.031Z,75.63
2017-06-13T09:46:35.924Z,75.54
2017-06-13T09:47:45.119Z,75.2
2017-06-13T09:48:54.337Z,74.87
2017-06-13T09:50:03.225Z,75.15
2017-06-13T09:51:12.120Z,75.82
2017-06-13T09:52:21.337Z,75.63
2017-06-13T09:53:30.479Z,76.02
2017-06-13T09:54:39.374Z,76.4
2017-06-13T09:55:48.264Z,75.92
2017-06-13T09:56:57.153Z,76.4
2017-06-13T09:58:06.369Z,75.35
2017-06-13T09:59:15.308Z,74.77
2017-06-13T10:00:24.212Z,74.39
2017-06-13T10:01:33.106Z,74.96
2017-06-13T10:02:42.651Z,74.77
2017-06-13T10:03:51.543Z,74.33
2017-06-13T10:05:00.585Z,74.87
2017-06-13T10:06:09.487Z,75
2017-06-13T10:07:18.386Z,75.48
2017-06-13T10:08:27.280Z,75.48
2017-06-13T10:09:36.499Z,73.75
2017-06-13T10:10:45.645Z,73.94
2017-06-13T10:11:54.543Z,74.81
2017-06-13T10:13:03.438Z,75
2017-06-13T10:14:12.335Z,74.08
2017-06-13T10:15:21.226Z,73.56
2017-06-13T10:16:30.273Z,73.66
2017-06-13T10:17:39.165Z,73.5
2017-06-13T10:18:48.387Z,73.79
2017-06-13T10:19:57.283Z,72.5
2017-06-13T10:21:06.823Z,72.92
2017-06-13T10:22:16.090Z,73.31
2017-06-13T10:23:24.983Z,72.92
2017-06-13T10:24:34.524Z,72.73
2017-06-13T10:25:43.745Z,72.73
2017-06-13T10:26:53.284Z,72.64
2017-06-13T10:28:02.550Z,71.42
2017-06-13T10:29:11.439Z,71.42
2017-06-13T10:30:20.329Z,72.34
2017-06-13T10:31:29.225Z,72.64
2017-06-13T10:32:38.447Z,72.64
2017-06-13T10:33:47.489Z,72.44
2017-06-13T10:34:56.383Z,72.16
2017-06-13T10:36:05.278Z,71.87
2017-06-13T10:37:14.176Z,71.52
2017-06-13T10:38:23.076Z,71.23
2017-06-13T10:39:32.123Z,71.1
2017-06-13T10:40:41.018Z,70.9
2017-06-13T10:41:49.912Z,70.81
2017-06-13T10:42:59.457Z,70.9
2017-06-13T10:44:08.998Z,71.19
2017-06-13T10:45:17.992Z,70.81
2017-06-13T10:46:26.884Z,71.39
2017-06-13T10:47:35.778Z,71.39
2017-06-13T10:48:44.997Z,72.06
2017-06-13T10:49:53.890Z,71.29
2017-06-13T10:51:02.882Z,70.72
2017-06-13T10:52:11.775Z,71.77
2017-06-13T10:53:20.666Z,71.42
2017-06-13T10:54:29.561Z,70.75
2017-06-13T10:55:38.452Z,70.33
2017-06-13T10:56:47.990Z,69.95
2017-06-13T10:57:56.889Z,70.52
2017-06-13T10:59:05.783Z,70.23
2017-06-13T11:00:14.999Z,69.79
2017-06-13T11:01:23.890Z,68.83
2017-06-13T11:02:33.688Z,69.46
2017-06-13T11:03:42.582Z,69.46
2017-06-13T11:04:51.478Z,68.02
2017-06-13T11:06:00.732Z,68.98
2017-06-13T11:07:09.640Z,69.98
2017-06-13T11:08:18.680Z,67.96
2017-06-13T11:09:27.579Z,67.29
2017-06-13T11:10:37.123Z,67.29
2017-06-13T11:11:46.667Z,67.93
2017-06-13T11:12:55.557Z,67.45
2017-06-13T11:14:04.503Z,68.02
2017-06-13T11:15:13.399Z,68.79
2017-06-13T11:16:22.290Z,68.12
2017-06-13T11:17:31.182Z,67.83
2017-06-13T11:18:40.132Z,67.29
2017-06-13T11:19:49.124Z,67.83
2017-06-13T11:20:58.014Z,68.02
2017-06-13T11:22:06.914Z,67.74
2017-06-13T11:23:15.808Z,67.64
2017-06-13T11:24:24.702Z,67.74
2017-06-13T11:25:33.894Z,67.74
2017-06-13T11:26:42.802Z,68.44
2017-06-13T11:27:52.019Z,68.06
2017-06-13T11:29:00.911Z,67.51
2017-06-13T11:30:09.805Z,67.32
2017-06-13T11:31:19.328Z,67.03
2017-06-13T11:32:28.224Z,66.2
2017-06-13T11:33:37.443Z,66.97
2017-06-13T11:34:46.336Z,66.2
2017-06-13T11:35:55.883Z,66.01
2017-06-13T11:37:04.934Z,65.63
2017-06-13T11:38:14.153Z,66.46
2017-06-13T11:39:23.049Z,66.68
2017-06-13T11:40:32.270Z,67.32
2017-06-13T11:41:41.164Z,66.2
2017-06-13T11:42:50.443Z,64.37
2017-06-13T11:43:59.339Z,63.6
2017-06-13T11:45:08.235Z,63.18
2017-06-13T11:46:17.457Z,64.43
2017-06-13T11:47:26.363Z,64.47
2017-06-13T11:48:35.521Z,64.08
2017-06-13T11:49:44.518Z,63.89
2017-06-13T11:50:53.414Z,62.74
2017-06-13T11:52:02.307Z,63.89
2017-06-13T11:53:11.207Z,63.99
2017-06-13T11:54:20.804Z,64.47
2017-06-13T11:55:30.025Z,63.89
2017-06-13T11:56:38.918Z,64.56
2017-06-13T11:57:47.815Z,65.24
2017-06-13T11:58:56.712Z,65.81
2017-06-13T12:00:05.609Z,66.58
2017-06-13T12:01:14.830Z,64.28
2017-06-13T12:02:23.724Z,64.95
2017-06-13T12:03:32.945Z,65.43
2017-06-13T12:04:42.163Z,66.49
2017-06-13T12:05:51.807Z,64.37
2017-06-13T12:07:01.027Z,65.14
2017-06-13T12:08:09.923Z,66.07
2017-06-13T12:09:19.143Z,66.17
2017-06-13T12:10:28.038Z,66.78
2017-06-13T12:11:37.634Z,66.49
2017-06-13T12:12:46.530Z,64.95
2017-06-13T12:13:55.428Z,65.3
2017-06-13T12:15:04.327Z,64.73
2017-06-13T12:16:13.552Z,63.76
2017-06-13T12:17:22.822Z,62.71
2017-06-13T12:18:32.692Z,62.61
2017-06-13T12:19:41.630Z,64.73
2017-06-13T12:20:50.943Z,64.43
2017-06-13T12:21:59.835Z,64.5
2017-06-13T12:23:09.372Z,65.59
2017-06-13T12:24:18.302Z,65.88
2017-06-13T12:25:27.197Z,65.3
2017-06-13T12:26:36.090Z,65.46
2017-06-13T12:27:45.346Z,65.17
2017-06-13T12:28:54.288Z,65.27
2017-06-13T12:30:03.505Z,65.17
2017-06-13T12:31:12.409Z,65.17
2017-06-13T12:32:21.314Z,65.66
2017-06-13T12:33:30.218Z,65.37
2017-06-13T12:34:39.481Z,66.71
2017-06-13T12:35:48.513Z,67
2017-06-13T12:36:57.435Z,66.55
2017-06-13T12:38:06.656Z,66.74
2017-06-13T12:39:15.891Z,66.65
2017-06-13T12:40:24.972Z,66.94
2017-06-13T12:41:33.900Z,65.97
2017-06-13T12:42:42.794Z,66.46
2017-06-13T12:43:52.022Z,66.46
2017-06-13T12:45:00.928Z,67.1
2017-06-13T12:46:10.276Z,66.46
2017-06-13T12:47:19.169Z,66.46
2017-06-13T12:48:28.065Z,66.74
2017-06-13T12:49:36.966Z,67.19
2017-06-13T12:50:46.835Z,67.96
2017-06-13T12:51:55.833Z,68.35
2017-06-13T12:53:04.733Z,67.96
2017-06-13T12:54:13.643Z,68.83
2017-06-13T12:55:22.866Z,69.31
2017-06-13T12:56:31.831Z,70.46
2017-06-13T12:57:41.249Z,69.53
2017-06-13T12:58:50.148Z,69.15
2017-06-13T12:59:59.045Z,67.71
2017-06-13T13:01:08.277Z,67.9
2017-06-13T13:02:17.172Z,67.13
2017-06-13T13:03:26.167Z,67.22
2017-06-13T13:04:35.098Z,67.13
2017-06-13T13:05:44.971Z,66.36
2017-06-13T13:06:53.866Z,66.46
2017-06-13T13:08:02.760Z,66.49
2017-06-13T13:09:11.956Z,65.37
2017-06-13T13:10:20.854Z,64.5
2017-06-13T13:11:30.078Z,62.7
2017-06-13T13:12:39.300Z,62.32
2017-06-13T13:13:48.217Z,62.45
2017-06-13T13:14:57.620Z,61.38
2017-06-13T13:16:06.861Z,61.83
2017-06-13T13:17:15.759Z,62.22
2017-06-13T13:18:24.885Z,62.03
2017-06-13T13:19:33.833Z,62.77
2017-06-13T13:20:42.940Z,61.61
2017-06-13T13:21:51.848Z,62.19
2017-06-13T13:23:00.751Z,62.38
2017-06-13T13:24:09.670Z,60.49
2017-06-13T13:25:18.570Z,60.94
2017-06-13T13:26:27.623Z,60.49
2017-06-13T13:27:36.521Z,59.04
2017-06-13T13:28:45.423Z,59.49
2017-06-13T13:29:54.647Z,60.07
2017-06-13T13:31:03.550Z,60.27
2017-06-13T13:32:12.925Z,59.62
2017-06-13T13:33:21.820Z,60.39
2017-06-13T13:34:30.717Z,60.39
2017-06-13T13:35:39.935Z,60.1
2017-06-13T13:36:48.834Z,58.75
2017-06-13T13:37:58.209Z,59.75
2017-06-13T13:39:07.429Z,57.53
2017-06-13T13:40:16.328Z,58.78
2017-06-13T13:41:25.559Z,58.3
2017-06-13T13:42:34.782Z,58.49
2017-06-13T13:43:43.680Z,58.78
2017-06-13T13:44:52.903Z,58.49
2017-06-13T13:46:02.135Z,58.78
2017-06-13T13:47:11.037Z,58.4
2017-06-13T13:48:19.940Z,59.55
2017-06-13T13:49:28.843Z,59.27
2017-06-13T13:50:37.742Z,59.36
2017-06-13T13:51:46.642Z,59.65
2017-06-13T13:52:56.191Z,58.59
2017-06-13T13:54:05.415Z,58.4
2017-06-13T13:55:14.314Z,60.2
2017-06-13T13:56:23.226Z,58.85
2017-06-13T13:57:32.130Z,58.75
2017-06-13T13:58:41.078Z,59.23
2017-06-13T13:59:49.974Z,58.56
2017-06-13T14:00:58.873Z,58.63
2017-06-13T14:02:07.798Z,59.49
2017-06-13T14:03:17.029Z,59.75
2017-06-13T14:04:25.926Z,59.78
2017-06-13T14:05:34.864Z,59.3
2017-06-13T14:06:43.763Z,59.01
2017-06-13T14:07:53.009Z,58.53
2017-06-13T14:09:10.342Z,58.37
2017-06-13T14:10:19.925Z,57.98
2017-06-13T14:11:28.933Z,58.72
2017-06-13T14:12:37.917Z,59.11
2017-06-13T14:13:46.826Z,57.5
2017-06-13T14:14:56.575Z,57.69
2017-06-13T14:16:05.472Z,57.6
2017-06-13T14:17:14.367Z,57.79
2017-06-13T14:18:23.267Z,58.37
2017-06-13T14:19:32.171Z,58.65
2017-06-13T14:20:41.397Z,60.39
2017-06-13T14:21:50.299Z,61.07
2017-06-13T14:22:59.212Z,61.93
2017-06-13T14:24:08.477Z,60.49
2017-06-13T14:25:17.375Z,61.74
2017-06-13T14:26:26.757Z,61.55
2017-06-13T14:27:35.980Z,59.17
2017-06-13T14:28:44.888Z,58.23
2017-06-13T14:29:54.768Z,59.1
2017-06-13T14:31:03.674Z,59.1
2017-06-13T14:32:13.481Z,57.97
2017-06-13T14:33:22.383Z,58.68
2017-06-13T14:34:31.289Z,58.58
2017-06-13T14:35:40.845Z,57.93
2017-06-13T14:36:50.074Z,58.61
2017-06-13T14:37:59.228Z,56.77
2017-06-13T14:39:08.475Z,56.58
2017-06-13T14:40:17.382Z,57.74
2017-06-13T14:41:26.296Z,56.36
2017-06-13T14:42:35.198Z,56.84
2017-06-13T14:43:44.251Z,58
2017-06-13T14:44:53.154Z,56.26
2017-06-13T14:46:02.057Z,56.43
2017-06-13T14:47:10.957Z,58.45
2017-06-13T14:48:19.860Z,56.72
2017-06-13T14:49:29.091Z,56.94
2017-06-13T14:50:37.998Z,56.87
2017-06-13T14:51:47.554Z,55.62
2017-06-13T14:52:56.782Z,55.65